PWSweather.com
Personal Weather Stations
Station Observations
NBW76
Silver Creek, North Bend, WA 98065

Silver CreekNorth Bend, WA 98065

Lat: 47.4993612, Lon: -121.7783245

Elevation: 443

Station Type: Davisd VP2 + Solar + UV + Webcam

Latest ConditionsUpdated 2:40:01 PM PDT Thursday, May 25, 2017
Currently Today's Max Today's Min Today's Average
Temperature 65.0°F18.3°C 65.7°F18.7°C 40.7°F4.8°C 49.9°F9.9°C
Dew Point 48.4°F9.1°C 49.6°F9.8°C 38.9°F3.8°C 43.5°F6.4°C
Winds 6.9 mph NNW11.1 kmh NNW 11.5 mph NW18.5 kmh NW - 2.1 mph 3.4 kmh
Wind Gusts 10.4 mph16.7 kmh 16.1 mph25.9 kmh - -
Humidity 55% 95% 55% 81%
Pressure 29.81 in1009.5 mb 29.89 in1012.2 mb 29.81 in1009.5 mb -
Hour Temp Dew Point Humidity Winds Wind Gusts Pressure Precip Precip Rate Daily Precip Total
02:40 PM 65.0°F18.3°C 48.4°F9.1°C 55% 6.9 mph NNW11.1 kmh NNW 10.4 mph16.7 kmh 29.81 in1009.5 mb - 0.00 in0.0 mm 0.00 in0.0 mm
02:30 PM 65.7°F18.7°C 49.6°F9.8°C 56% 3.5 mph WSW5.6 kmh WSW 3.5 mph5.6 kmh 29.82 in1009.8 mb - 0.00 in0.0 mm 0.00 in0.0 mm
02:20 PM 65.3°F18.5°C 49.2°F9.6°C 56% 6.9 mph SW11.1 kmh SW 10.4 mph16.7 kmh 29.82 in1009.8 mb - 0.00 in0.0 mm 0.00 in0.0 mm
02:10 PM 64.9°F18.3°C 48.4°F9.1°C 55% 9.2 mph SW14.8 kmh SW 11.5 mph18.5 kmh 29.83 in1010.2 mb - 0.00 in0.0 mm 0.00 in0.0 mm
02:00 PM 64.6°F18.1°C 48.1°F8.9°C 55% 6.9 mph NW11.1 kmh NW 8.1 mph13.0 kmh 29.83 in1010.2 mb - 0.00 in0.0 mm 0.00 in0.0 mm
01:50 PM 64.3°F17.9°C 48.3°F9.1°C 56% 8.1 mph SW13.0 kmh SW 11.5 mph18.5 kmh 29.83 in1010.2 mb - 0.00 in0.0 mm 0.00 in0.0 mm
01:40 PM 63.4°F17.4°C 47.5°F8.6°C 56% 8.1 mph WSW13.0 kmh WSW 11.5 mph18.5 kmh 29.83 in1010.2 mb - 0.00 in0.0 mm 0.00 in0.0 mm
01:30 PM 63.8°F17.7°C 48.2°F9.0°C 57% 3.5 mph N5.6 kmh N 3.5 mph5.6 kmh 29.83 in1010.2 mb - 0.00 in0.0 mm 0.00 in0.0 mm
01:20 PM 62.9°F17.2°C 46.9°F8.3°C 56% 8.1 mph WSW13.0 kmh WSW 13.8 mph22.2 kmh 29.84 in1010.5 mb - 0.00 in0.0 mm 0.00 in0.0 mm
01:10 PM 63.0°F17.2°C 47.5°F8.6°C 57% 8.1 mph W13.0 kmh W 9.2 mph14.8 kmh 29.84 in1010.5 mb - 0.00 in0.0 mm 0.00 in0.0 mm
01:00 PM 62.2°F16.8°C 46.7°F8.2°C 57% 3.5 mph SW5.6 kmh SW 9.2 mph14.8 kmh 29.84 in1010.5 mb - 0.00 in0.0 mm 0.00 in0.0 mm
12:50 PM 62.9°F17.2°C 48.4°F9.1°C 59% 5.8 mph W9.3 kmh W 5.8 mph9.3 kmh 29.84 in1010.5 mb - 0.00 in0.0 mm 0.00 in0.0 mm
12:40 PM 63.1°F17.3°C 49.0°F9.4°C 60% 4.6 mph NW7.4 kmh NW 11.5 mph18.5 kmh 29.84 in1010.5 mb - 0.00 in0.0 mm 0.00 in0.0 mm
12:30 PM 62.8°F17.1°C 47.3°F8.5°C 57% 3.5 mph NW5.6 kmh NW 11.5 mph18.5 kmh 29.84 in1010.5 mb - 0.00 in0.0 mm 0.00 in0.0 mm
12:20 PM 63.0°F17.2°C 48.8°F9.3°C 60% 3.5 mph WSW5.6 kmh WSW 11.5 mph18.5 kmh 29.84 in1010.5 mb - 0.00 in0.0 mm 0.00 in0.0 mm
12:10 PM 61.8°F16.6°C 47.3°F8.5°C 59% 11.5 mph NW18.5 kmh NW 16.1 mph25.9 kmh 29.85 in1010.8 mb - 0.00 in0.0 mm 0.00 in0.0 mm
12:00 PM 61.4°F16.3°C 46.9°F8.3°C 59% 4.6 mph WSW7.4 kmh WSW 9.2 mph14.8 kmh 29.85 in1010.8 mb - 0.00 in0.0 mm 0.00 in0.0 mm
11:50 AM 60.7°F15.9°C 46.7°F8.2°C 60% 4.6 mph W7.4 kmh W 10.4 mph16.7 kmh 29.85 in1010.8 mb - 0.00 in0.0 mm 0.00 in0.0 mm
11:40 AM 60.4°F15.8°C 46.4°F8.0°C 60% 6.9 mph WSW11.1 kmh WSW 11.5 mph18.5 kmh 29.85 in1010.8 mb - 0.00 in0.0 mm 0.00 in0.0 mm
11:30 AM 60.2°F15.7°C 46.3°F7.9°C 60% 6.9 mph WSW11.1 kmh WSW 9.2 mph14.8 kmh 29.85 in1010.8 mb - 0.00 in0.0 mm 0.00 in0.0 mm
11:20 AM 59.7°F15.4°C 46.6°F8.1°C 62% 3.5 mph W5.6 kmh W 10.4 mph16.7 kmh 29.85 in1010.8 mb - 0.00 in0.0 mm 0.00 in0.0 mm
11:10 AM 59.0°F15.0°C 46.0°F7.8°C 62% 8.1 mph W13.0 kmh W 10.4 mph16.7 kmh 29.86 in1011.2 mb - 0.00 in0.0 mm 0.00 in0.0 mm
11:00 AM 59.3°F15.2°C 46.7°F8.2°C 63% 3.5 mph SW5.6 kmh SW 5.8 mph9.3 kmh 29.85 in1010.8 mb - 0.00 in0.0 mm 0.00 in0.0 mm
10:50 AM 58.8°F14.9°C 45.8°F7.7°C 62% 4.6 mph SW7.4 kmh SW 9.2 mph14.8 kmh 29.85 in1010.8 mb - 0.00 in0.0 mm 0.00 in0.0 mm
10:40 AM 58.5°F14.7°C 46.8°F8.2°C 65% 2.3 mph WNW3.7 kmh WNW 3.5 mph5.6 kmh 29.85 in1010.8 mb - 0.00 in0.0 mm 0.00 in0.0 mm
10:30 AM 58.2°F14.6°C 45.7°F7.6°C 63% 3.5 mph WSW5.6 kmh WSW 5.8 mph9.3 kmh 29.86 in1011.2 mb - 0.00 in0.0 mm 0.00 in0.0 mm
10:20 AM 57.4°F14.1°C 45.4°F7.4°C 64% 4.6 mph W7.4 kmh W 5.8 mph9.3 kmh 29.86 in1011.2 mb - 0.00 in0.0 mm 0.00 in0.0 mm
10:10 AM 57.3°F14.1°C 46.4°F8.0°C 67% 4.6 mph NW7.4 kmh NW 9.2 mph14.8 kmh 29.86 in1011.2 mb - 0.00 in0.0 mm 0.00 in0.0 mm
10:00 AM 56.3°F13.5°C 46.6°F8.1°C 70% 2.3 mph NNW3.7 kmh NNW 4.6 mph7.4 kmh 29.86 in1011.2 mb - 0.00 in0.0 mm 0.00 in0.0 mm
09:50 AM 55.4°F13.0°C 45.4°F7.4°C 69% 8.1 mph WSW13.0 kmh WSW 10.4 mph16.7 kmh 29.87 in1011.5 mb - 0.00 in0.0 mm 0.00 in0.0 mm
09:40 AM 55.4°F13.0°C 46.9°F8.3°C 73% 2.3 mph W3.7 kmh W 3.5 mph5.6 kmh 29.87 in1011.5 mb - 0.00 in0.0 mm 0.00 in0.0 mm
09:30 AM 54.8°F12.7°C 46.3°F7.9°C 73% 4.6 mph NW7.4 kmh NW 6.9 mph11.1 kmh 29.87 in1011.5 mb - 0.00 in0.0 mm 0.00 in0.0 mm
09:20 AM 53.7°F12.1°C 46.0°F7.8°C 75% 3.5 mph SW5.6 kmh SW 3.5 mph5.6 kmh 29.88 in1011.9 mb - 0.00 in0.0 mm 0.00 in0.0 mm
09:10 AM 52.2°F11.2°C 45.6°F7.6°C 78% 3.5 mph WSW5.6 kmh WSW 3.5 mph5.6 kmh 29.88 in1011.9 mb - 0.00 in0.0 mm 0.00 in0.0 mm
09:00 AM 50.7°F10.4°C 46.4°F8.0°C 85% 2.3 mph SW3.7 kmh SW 3.5 mph5.6 kmh 29.88 in1011.9 mb - 0.00 in0.0 mm 0.00 in0.0 mm
08:50 AM 49.7°F9.8°C 45.7°F7.6°C 86% 2.3 mph NNW3.7 kmh NNW 3.5 mph5.6 kmh 29.88 in1011.9 mb - 0.00 in0.0 mm 0.00 in0.0 mm
08:40 AM 48.9°F9.4°C 44.9°F7.2°C 86% 1.2 mph NNW1.9 kmh NNW 2.3 mph3.7 kmh 29.88 in1011.9 mb - 0.00 in0.0 mm 0.00 in0.0 mm
08:30 AM 48.2°F9.0°C 44.9°F7.2°C 88% Calm Calm -- 29.88 in1011.9 mb - 0.00 in0.0 mm 0.00 in0.0 mm
08:20 AM 48.2°F9.0°C 45.7°F7.6°C 91% Calm Calm -- 29.88 in1011.9 mb - 0.00 in0.0 mm 0.00 in0.0 mm
08:10 AM 47.9°F8.8°C 45.7°F7.6°C 92% Calm Calm -- 29.88 in1011.9 mb - 0.00 in0.0 mm 0.00 in0.0 mm
08:00 AM 47.9°F8.8°C 46.0°F7.8°C 93% Calm Calm -- 29.88 in1011.9 mb - 0.00 in0.0 mm 0.00 in0.0 mm
07:50 AM 47.1°F8.4°C 45.4°F7.4°C 94% Calm Calm -- 29.88 in1011.9 mb - 0.00 in0.0 mm 0.00 in0.0 mm
07:40 AM 46.0°F7.8°C 44.6°F7.0°C 95% Calm Calm -- 29.89 in1012.2 mb - 0.00 in0.0 mm 0.00 in0.0 mm
07:30 AM 44.0°F6.7°C 42.6°F5.9°C 95% Calm Calm -- 29.89 in1012.2 mb - 0.00 in0.0 mm 0.00 in0.0 mm
07:20 AM 43.3°F6.3°C 41.9°F5.5°C 95% Calm Calm -- 29.89 in1012.2 mb - 0.00 in0.0 mm 0.00 in0.0 mm
07:10 AM 42.8°F6.0°C 41.5°F5.3°C 95% Calm Calm -- 29.89 in1012.2 mb - 0.00 in0.0 mm 0.00 in0.0 mm
07:00 AM 42.5°F5.8°C 41.2°F5.1°C 95% Calm Calm -- 29.89 in1012.2 mb - 0.00 in0.0 mm 0.00 in0.0 mm
06:50 AM 42.2°F5.7°C 40.9°F4.9°C 95% Calm Calm -- 29.89 in1012.2 mb - 0.00 in0.0 mm 0.00 in0.0 mm
06:40 AM 41.9°F5.5°C 40.5°F4.7°C 95% Calm Calm -- 29.89 in1012.2 mb - 0.00 in0.0 mm 0.00 in0.0 mm
06:30 AM 41.5°F5.3°C 39.9°F4.4°C 94% Calm Calm -- 29.89 in1012.2 mb - 0.00 in0.0 mm 0.00 in0.0 mm
06:20 AM 41.4°F5.2°C 40.1°F4.5°C 95% Calm Calm -- 29.89 in1012.2 mb - 0.00 in0.0 mm 0.00 in0.0 mm
06:10 AM 41.3°F5.2°C 40.0°F4.4°C 95% Calm Calm -- 29.89 in1012.2 mb - 0.00 in0.0 mm 0.00 in0.0 mm
06:00 AM 41.2°F5.1°C 39.6°F4.2°C 94% Calm Calm -- 29.89 in1012.2 mb - 0.00 in0.0 mm 0.00 in0.0 mm
05:50 AM 41.3°F5.2°C 39.7°F4.3°C 94% Calm Calm -- 29.89 in1012.2 mb - 0.00 in0.0 mm 0.00 in0.0 mm
05:40 AM 41.3°F5.2°C 39.7°F4.3°C 94% Calm Calm -- 29.89 in1012.2 mb - 0.00 in0.0 mm 0.00 in0.0 mm
05:30 AM 41.3°F5.2°C 39.7°F4.3°C 94% Calm Calm -- 29.89 in1012.2 mb - 0.00 in0.0 mm 0.00 in0.0 mm
05:20 AM 41.2°F5.1°C 39.6°F4.2°C 94% Calm Calm -- 29.89 in1012.2 mb - 0.00 in0.0 mm 0.00 in0.0 mm
05:10 AM 41.1°F5.1°C 39.6°F4.2°C 94% Calm Calm -- 29.89 in1012.2 mb - 0.00 in0.0 mm 0.00 in0.0 mm
05:00 AM 41.3°F5.2°C 39.7°F4.3°C 94% Calm Calm -- 29.89 in1012.2 mb - 0.00 in0.0 mm 0.00 in0.0 mm
04:50 AM 41.4°F5.2°C 39.8°F4.3°C 94% Calm Calm -- 29.89 in1012.2 mb - 0.00 in0.0 mm 0.00 in0.0 mm
04:40 AM 41.6°F5.3°C 40.0°F4.4°C 94% Calm Calm -- 29.89 in1012.2 mb - 0.00 in0.0 mm 0.00 in0.0 mm
04:30 AM 41.6°F5.3°C 40.0°F4.4°C 94% Calm Calm -- 29.89 in1012.2 mb - 0.00 in0.0 mm 0.00 in0.0 mm
04:20 AM 41.4°F5.2°C 39.8°F4.3°C 94% Calm Calm -- 29.89 in1012.2 mb - 0.00 in0.0 mm 0.00 in0.0 mm
04:10 AM 41.1°F5.1°C 39.5°F4.2°C 94% Calm Calm -- 29.89 in1012.2 mb - 0.00 in0.0 mm 0.00 in0.0 mm
04:00 AM 41.0°F5.0°C 39.4°F4.1°C 94% Calm Calm -- 29.89 in1012.2 mb - 0.00 in0.0 mm 0.00 in0.0 mm
03:50 AM 40.8°F4.9°C 39.2°F4.0°C 94% Calm Calm -- 29.89 in1012.2 mb - 0.00 in0.0 mm 0.00 in0.0 mm
03:40 AM 40.8°F4.9°C 39.2°F4.0°C 94% Calm Calm -- 29.89 in1012.2 mb - 0.00 in0.0 mm 0.00 in0.0 mm
03:30 AM 40.7°F4.8°C 38.9°F3.8°C 93% Calm Calm -- 29.89 in1012.2 mb - 0.00 in0.0 mm 0.00 in0.0 mm
03:20 AM 41.0°F5.0°C 39.1°F3.9°C 93% Calm Calm -- 29.89 in1012.2 mb - 0.00 in0.0 mm 0.00 in0.0 mm
03:10 AM 41.3°F5.2°C 39.4°F4.1°C 93% Calm Calm -- 29.89 in1012.2 mb - 0.00 in0.0 mm 0.00 in0.0 mm
03:00 AM 41.4°F5.2°C 39.5°F4.2°C 93% Calm Calm -- 29.89 in1012.2 mb - 0.00 in0.0 mm 0.00 in0.0 mm
02:50 AM 41.6°F5.3°C 39.7°F4.3°C 93% Calm Calm -- 29.89 in1012.2 mb - 0.00 in0.0 mm 0.00 in0.0 mm
02:40 AM 41.8°F5.4°C 39.9°F4.4°C 93% Calm Calm -- 29.89 in1012.2 mb - 0.00 in0.0 mm 0.00 in0.0 mm
02:30 AM 41.9°F5.5°C 40.0°F4.4°C 93% Calm Calm -- 29.88 in1011.9 mb - 0.00 in0.0 mm 0.00 in0.0 mm
02:20 AM 42.0°F5.6°C 39.8°F4.3°C 92% Calm Calm -- 29.88 in1011.9 mb - 0.00 in0.0 mm 0.00 in0.0 mm
02:10 AM 42.3°F5.7°C 40.1°F4.5°C 92% Calm Calm -- 29.88 in1011.9 mb - 0.00 in0.0 mm 0.00 in0.0 mm
02:00 AM 42.5°F5.8°C 40.4°F4.7°C 92% Calm Calm -- 29.88 in1011.9 mb - 0.00 in0.0 mm 0.00 in0.0 mm
01:50 AM 42.7°F5.9°C 40.5°F4.7°C 92% Calm Calm -- 29.88 in1011.9 mb - 0.00 in0.0 mm 0.00 in0.0 mm
01:40 AM 42.9°F6.1°C 40.7°F4.8°C 92% Calm Calm -- 29.88 in1011.9 mb - 0.00 in0.0 mm 0.00 in0.0 mm
01:30 AM 43.2°F6.2°C 40.8°F4.9°C 91% Calm Calm -- 29.88 in1011.9 mb - 0.00 in0.0 mm 0.00 in0.0 mm
01:20 AM 43.5°F6.4°C 41.0°F5.0°C 91% Calm Calm -- 29.88 in1011.9 mb - 0.00 in0.0 mm 0.00 in0.0 mm
01:10 AM 43.6°F6.4°C 41.1°F5.1°C 91% Calm Calm -- 29.89 in1012.2 mb - 0.00 in0.0 mm 0.00 in0.0 mm
01:00 AM 43.9°F6.6°C 41.4°F5.2°C 91% Calm Calm -- 29.89 in1012.2 mb - 0.00 in0.0 mm 0.00 in0.0 mm
12:50 AM 44.2°F6.8°C 41.5°F5.3°C 90% Calm Calm -- 29.89 in1012.2 mb - 0.00 in0.0 mm 0.00 in0.0 mm
12:40 AM 44.4°F6.9°C 41.7°F5.4°C 90% Calm Calm -- 29.89 in1012.2 mb - 0.00 in0.0 mm 0.00 in0.0 mm
12:30 AM 44.7°F7.1°C 42.0°F5.6°C 90% Calm Calm -- 29.89 in1012.2 mb - 0.00 in0.0 mm 0.00 in0.0 mm
12:20 AM 45.1°F7.3°C 42.1°F5.6°C 89% Calm Calm -- 29.89 in1012.2 mb - 0.00 in0.0 mm 0.00 in0.0 mm
12:10 AM 45.5°F7.5°C 42.2°F5.7°C 88% Calm Calm -- 29.88 in1011.9 mb - 0.00 in0.0 mm 0.00 in0.0 mm
12:00 AM 46.0°F7.8°C 42.3°F5.7°C 87% Calm Calm -- 29.89 in1012.2 mb - 0.00 in0.0 mm 0.00 in0.0 mm